Terminal Aerodrome Forecast
Issued by NWS Corpus Christi, TX

Home | Current Version | Previous Version | Text Only | Print | Product List | Glossary On
Versions: 1 2 3 4 5 6 7 8 9 10 11 12 13 14 15 16
000
FTUS44 KCRP 281300 AAB
TAFCRP
TAF AMD
KCRP 281322Z 2813/2912 VRB03KT 1/4SM FG SCT002
      TEMPO 2813/2814 1SM BR BKN002
     FM281415 VRB03KT 3SM BR FEW005 SCT040
     FM281500 18007KT P6SM SCT025
     FM281800 17014G20KT P6SM FEW030
     FM290000 16010KT P6SM FEW020
     FM290800 18008KT P6SM SCT012
      TEMPO 2909/2912 BKN012=

USA.gov is the U.S. government's official web portal to all federal, state and local government web resources and services.